Latest Weather Observations for Cape Sorell

IDT60801

Issued at 4:41 pm EDT Sunday 5 December 2021 (issued every 10 minutes, with the page automatically refreshed every 10 minutes)

About weather observations | Map of weather stations | Latest weather observations for TAS | Other Formats
Station Details ID: 097000 Name: CAPE SORELL Lat: -42.20 Lon: 145.17 Height: 19.3 m
Data from the previous 72 hours. | See also: Recent months at Cape Sorell
Date/Time
EDT
Temp
°C
App
Temp
°C
Dew
Point
°C
Rel
Hum
%
Delta-T
°C
Wind Press
QNH
hPa
Press
MSL
hPa
Rain since
9am
mm
Dir  Spd
km/h
Gust
km/h
Spd
kts
Gust
kts
05/04:30pm 17.0 13.9 7.4 53 4.8 WSW 13 15 7 8 - - 0.0
05/04:00pm 17.6 15.1 8.2 54 4.8 SW 11 13 6 7 - - 0.0
05/03:30pm 17.7 14.4 8.0 53 4.9 SW 15 17 8 9 - - 0.0
05/03:00pm 17.6 14.6 7.9 53 4.9 SW 13 17 7 9 - - 0.0
05/02:30pm 17.8 14.6 8.4 54 4.8 SW 15 20 8 11 - - 0.0
05/02:00pm 17.7 14.2 8.6 55 4.7 SW 17 20 9 11 - - 0.0
05/01:30pm 17.1 13.0 8.0 55 4.6 SW 19 22 10 12 - - 0.0
05/01:00pm 17.2 13.6 8.4 56 4.5 SW 17 20 9 11 - - 0.0
05/12:30pm 16.6 13.2 7.5 55 4.6 SW 15 19 8 10 - - 0.0
05/12:00pm 15.8 12.3 7.1 56 4.3 SSW 15 19 8 10 - - 0.0
05/11:30am 15.4 12.4 6.2 54 4.4 SSW 11 15 6 8 - - 0.0
05/11:00am 15.3 11.9 6.1 54 4.4 SSW 13 15 7 8 - - 0.0
05/10:30am 15.2 12.7 6.7 57 4.1 SW 9 11 5 6 - - 0.0
05/10:00am 14.7 12.9 7.0 60 3.8 SW 6 7 3 4 - - 0.0
05/09:30am 13.0 11.0 7.2 68 2.8 SSE 7 11 4 6 - - 0.0
05/09:00am 12.1 8.8 6.4 68 2.7 ESE 13 17 7 9 - - 0.0
05/08:30am 11.5 9.1 6.8 73 2.2 ESE 9 15 5 8 - - 0.0
05/08:00am 10.7 7.5 7.0 78 1.8 ESE 13 20 7 11 - - 0.0
05/07:30am 10.1 7.4 7.2 82 1.4 ESE 11 17 6 9 - - 0.0
05/07:00am 9.6 6.9 7.2 85 1.1 E 11 15 6 8 - - 0.0
05/06:30am 8.8 5.9 6.4 85 1.1 E 11 15 6 8 - - 0.0
05/06:00am 8.2 4.7 5.5 83 1.2 E 13 15 7 8 - - 0.0
05/05:30am 8.3 4.7 5.1 80 1.4 E 13 15 7 8 - - 0.0
05/05:00am 8.1 4.8 4.5 78 1.6 E 11 13 6 7 - - 0.0
05/04:30am 7.5 4.0 3.7 77 1.6 E 11 13 6 7 - - 0.0
05/04:00am 7.4 3.9 3.3 75 1.7 E 11 13 6 7 - - 0.0
05/03:30am 7.6 4.1 3.5 75 1.7 ENE 11 13 6 7 - - 0.0
05/03:00am 8.0 4.1 3.5 73 1.9 E 13 13 7 7 - - 0.0
05/02:30am 7.9 4.3 3.0 71 2.1 E 11 13 6 7 - - 0.0
05/02:00am 7.9 3.5 2.6 69 2.2 ESE 15 15 8 8 - - 0.0
05/01:30am 7.2 3.1 2.1 70 2.1 SE 13 15 7 8 - - 0.0
05/01:00am 7.7 4.0 2.6 70 2.1 SE 11 13 6 7 - - 0.0
05/12:30am 7.6 3.9 2.3 69 2.2 SE 11 13 6 7 - - 0.0
05/12:00am 7.7 4.8 2.4 69 2.2 SE 7 11 4 6 - - 0.0
 
Date/Time
EDT
Temp
°C
App
Temp
°C
Dew
Point
°C
Rel
Hum
%
Delta-T
°C
Wind Press
QNH
hPa
Press
MSL
hPa
Rain since
9am
mm
Dir  Spd
km/h
Gust
km/h
Spd
kts
Gust
kts
04/11:30pm 8.1 4.9 2.8 69 2.2 SE 9 11 5 6 - - 0.0
04/11:00pm 8.2 4.6 2.9 69 2.2 SE 11 13 6 7 - - 0.0
04/10:30pm 8.2 4.6 2.9 69 2.2 SSE 11 13 6 7 - - 0.0
04/10:00pm 8.6 5.3 2.4 65 2.6 SSE 9 13 5 7 - - 0.0
04/09:30pm 10.7 5.9 2.8 58 3.4 S 17 20 9 11 - - 0.0
04/09:00pm 10.7 6.0 3.3 60 3.2 S 17 24 9 13 - - 0.0
04/08:30pm 10.9 6.0 3.9 62 3.1 S 19 24 10 13 - - 0.0
04/08:00pm 10.9 5.8 4.1 63 3.0 SSW 20 26 11 14 - - 0.0
04/07:30pm 11.3 6.2 4.3 62 3.1 S 20 24 11 13 - - 0.0
04/07:00pm 12.7 7.4 4.9 59 3.6 SSW 22 28 12 15 - - 0.0
04/06:30pm 13.2 7.8 4.6 56 4.0 SSW 22 28 12 15 - - 0.0
04/06:00pm 13.1 6.8 3.5 52 4.3 SSW 26 32 14 17 - - 0.0
04/05:30pm 13.1 6.4 3.5 52 4.3 SSW 28 35 15 19 - - 0.0
04/05:00pm 13.7 6.7 4.3 53 4.3 SSW 30 37 16 20 - - 0.0
04/04:30pm 13.8 6.9 4.7 54 4.2 SSW 30 37 16 20 - - 0.0
04/04:00pm 14.7 7.4 4.4 50 4.8 SSW 32 35 17 19 - - 0.0
04/03:30pm 13.9 6.5 3.9 51 4.6 SSW 32 37 17 20 - - 0.0
04/03:00pm 14.2 7.4 5.3 55 4.2 SSW 30 35 16 19 - - 0.0
04/02:30pm 13.4 5.4 5.6 59 3.7 SSW 37 44 20 24 - - 0.0
04/02:00pm 14.3 6.9 4.9 53 4.4 SSW 33 41 18 22 - - 0.0
04/01:30pm 13.8 6.3 4.7 54 4.2 SSW 33 39 18 21 - - 0.0
04/01:00pm 13.0 5.5 4.4 56 3.9 SSW 33 41 18 22 - - 0.0
04/12:30pm 14.0 5.8 4.6 53 4.3 SW 37 44 20 24 - - 0.0
04/12:00pm 13.7 4.7 4.6 54 4.2 SSW 41 48 22 26 - - 0.0
04/11:30am 13.9 6.0 4.5 53 4.3 SSW 35 43 19 23 - - 0.0
04/11:00am 13.2 4.8 3.8 53 4.2 SW 37 44 20 24 - - 0.0
04/10:30am 12.5 3.4 4.0 56 3.8 SSW 41 50 22 27 - - 0.0
04/10:00am 12.8 3.8 4.5 57 3.8 SSW 41 50 22 27 - - 0.0
04/09:30am 12.3 3.8 5.0 61 3.4 SSW 39 50 21 27 - - 0.0
04/09:00am 11.3 2.1 5.6 68 2.6 SW 43 52 23 28 - - 3.0
04/08:30am 11.2 1.1 5.7 69 2.5 SSW 48 56 26 30 - - 3.0
04/08:00am 10.7 1.2 6.6 76 1.9 SW 46 57 25 31 - - 3.0
04/07:30am 11.1 1.5 8.1 82 1.5 SW 48 56 26 30 - - 3.0
04/07:00am 10.7 1.7 9.0 89 0.8 SW 46 57 25 31 - - 3.0
04/06:30am 10.5 1.6 9.3 92 0.6 SW 46 52 25 28 - - 3.0
04/06:00am 10.6 2.3 9.5 93 0.6 SW 43 50 23 27 - - 3.0
04/05:30am 10.8 2.0 9.6 92 0.6 SW 46 57 25 31 - - 3.0
04/05:00am 11.0 3.5 9.3 89 0.9 WSW 39 48 21 26 - - 2.8
04/04:48am 12.0 3.6 9.0 82 1.5 W 43 61 23 33 - - 2.0
04/04:40am 13.0 6.3 9.6 80 1.7 WNW 35 56 19 30 - - 1.2
04/04:30am 13.0 4.8 9.6 80 1.7 WNW 43 54 23 29 - - 1.2
04/04:00am 12.7 5.0 10.1 84 1.3 WNW 41 54 22 29 - - 1.2
04/03:30am 12.2 4.4 9.8 85 1.2 WNW 41 56 22 30 - - 1.2
04/03:17am 12.1 4.9 9.3 83 1.4 WNW 37 57 20 31 - - 1.2
04/03:00am 12.6 5.0 9.1 79 1.8 NW 39 48 21 26 - - 1.0
04/02:44am 12.7 6.8 9.2 79 1.8 NW 30 48 16 26 - - 1.0
04/02:30am 12.5 5.3 9.1 80 1.7 WNW 37 46 20 25 - - 1.0
04/02:00am 12.0 5.1 9.0 82 1.5 NW 35 44 19 24 - - 1.0
04/01:30am 12.0 3.6 9.6 85 1.2 WNW 44 54 24 29 - - 1.0
04/01:00am 11.8 5.6 9.9 88 1.0 NW 33 48 18 26 - - 1.0
04/12:30am 11.1 4.2 8.8 86 1.1 WNW 35 48 19 26 - - 1.0
04/12:17am 12.0 4.0 9.0 82 1.5 WNW 41 61 22 33 - - 0.8
04/12:11am 12.0 5.5 9.0 82 1.5 NW 33 48 18 26 - - 0.8
04/12:00am 11.8 7.9 8.5 80 1.6 W 19 26 10 14 - - 0.8
 
Date/Time
EDT
Temp
°C
App
Temp
°C
Dew
Point
°C
Rel
Hum
%
Delta-T
°C
Wind Press
QNH
hPa
Press
MSL
hPa
Rain since
9am
mm
Dir  Spd
km/h
Gust
km/h
Spd
kts
Gust
kts
03/11:30pm 12.8 6.2 7.9 72 2.4 WNW 32 44 17 24 - - 0.0
03/11:00pm 13.0 6.2 7.0 67 2.9 NW 32 43 17 23 - - 0.0
03/10:30pm 13.1 6.8 7.3 68 2.8 NW 30 43 16 23 - - 0.0
03/10:00pm 13.3 7.4 7.3 67 2.9 NW 28 37 15 20 - - 0.0
03/09:30pm 13.2 7.2 7.0 66 3.0 WNW 28 37 15 20 - - 0.0
03/09:00pm 12.9 6.8 6.5 65 3.1 NW 28 39 15 21 - - 0.0
03/08:30pm 13.2 7.6 7.0 66 3.0 NW 26 35 14 19 - - 0.0
03/08:00pm 13.3 8.3 6.6 64 3.2 NW 22 33 12 18 - - 0.0
03/07:30pm 13.5 8.2 6.6 63 3.3 NNW 24 32 13 17 - - 0.0
03/07:00pm 14.0 8.7 6.6 61 3.6 NNW 24 35 13 19 - - 0.0
03/06:30pm 13.8 8.7 6.2 60 3.6 NNW 22 30 12 16 - - 0.0
03/06:00pm 14.8 10.3 5.9 55 4.3 NW 19 28 10 15 - - 0.0
03/05:30pm 15.4 10.7 5.9 53 4.6 NW 20 28 11 15 - - 0.0
03/05:00pm 16.2 11.7 6.3 52 4.8 NW 19 26 10 14 - - 0.0
03/04:30pm 17.0 12.5 7.1 52 4.9 NW 20 30 11 16 - - 0.0
03/04:00pm 16.9 12.3 5.8 48 5.4 WNW 19 26 10 14 - - 0.0
03/03:30pm 17.6 13.7 7.1 50 5.3 NW 17 22 9 12 - - 0.0
03/03:00pm 17.6 13.9 6.2 47 5.6 WNW 15 20 8 11 - - 0.0
03/02:30pm 17.5 13.4 6.4 48 5.5 WNW 17 22 9 12 - - 0.0
03/02:00pm 17.4 13.6 5.7 46 5.7 WNW 15 20 8 11 - - 0.0
03/01:30pm 17.4 14.0 6.0 47 5.6 WNW 13 17 7 9 - - 0.0
03/01:00pm 17.3 14.0 6.5 49 5.3 W 13 19 7 10 - - 0.0
03/12:30pm 17.1 13.9 6.9 51 5.1 W 13 17 7 9 - - 0.0
03/12:00pm 17.1 14.4 7.5 53 4.8 W 11 15 6 8 - - 0.0
03/11:30am 16.3 13.6 7.3 55 4.5 WSW 11 17 6 9 - - 0.0
03/11:00am 16.1 13.5 7.6 57 4.3 WSW 11 15 6 8 - - 0.0
03/10:30am 15.4 12.3 7.4 59 4.0 WSW 13 17 7 9 - - 0.0
03/10:00am 15.2 11.9 8.0 62 3.6 SW 15 19 8 10 - - 0.0
03/09:30am 13.6 10.2 7.8 68 2.9 SW 15 19 8 10 - - 0.0
03/09:00am 14.5 10.9 8.2 66 3.2 SW 17 20 9 11 - - 0.4
03/08:30am 13.5 9.6 7.3 66 3.0 WSW 17 20 9 11 - - 0.4
03/08:00am 13.2 9.4 7.4 68 2.8 SW 17 22 9 12 - - 0.4
03/07:30am 12.6 8.2 7.5 71 2.5 SW 20 24 11 13 - - 0.4
03/07:00am 11.9 7.5 7.4 74 2.2 SW 20 24 11 13 - - 0.4
03/06:30am 12.0 8.6 7.7 75 2.1 SW 15 20 8 11 - - 0.4
03/06:00am 11.8 7.6 7.5 75 2.1 WSW 19 22 10 12 - - 0.4
03/05:30am 11.6 7.2 7.5 76 2.0 SW 20 24 11 13 - - 0.4
03/05:00am 11.8 7.2 8.1 78 1.8 SW 22 28 12 15 - - 0.4
03/04:30am 11.8 7.2 8.1 78 1.8 SW 22 28 12 15 - - 0.4
03/04:00am 11.8 6.5 8.6 81 1.6 SW 26 30 14 16 - - 0.4
03/03:30am 12.0 7.0 9.4 84 1.3 SW 26 32 14 17 - - 0.4
03/03:00am 11.7 7.0 9.4 86 1.2 SW 24 30 13 16 - - 0.4
03/02:30am 11.8 7.2 9.7 87 1.1 SW 24 30 13 16 - - 0.4
03/02:00am 11.7 7.1 9.8 88 1.0 SW 24 28 13 15 - - 0.4
03/01:30am 11.8 8.1 9.5 86 1.2 WSW 19 24 10 13 - - 0.4
03/01:07am 12.7 8.9 9.2 79 1.8 W 19 43 10 23 - - 0.2
03/01:00am 13.2 10.7 9.6 79 1.8 WNW 13 17 7 9 - - 0.2
03/12:30am 12.8 10.2 9.4 80 1.7 WNW 13 17 7 9 - - 0.2
03/12:00am 12.5 10.6 9.0 79 1.8 NW 9 13 5 7 - - 0.2
 
Date/Time
EDT
Temp
°C
App
Temp
°C
Dew
Point
°C
Rel
Hum
%
Delta-T
°C
Wind Press
QNH
hPa
Press
MSL
hPa
Rain since
9am
mm
Dir  Spd
km/h
Gust
km/h
Spd
kts
Gust
kts
02/11:30pm 12.7 10.4 9.0 78 1.9 NW 11 19 6 10 - - 0.2
02/11:00pm 12.8 9.6 8.5 75 2.1 NW 15 20 8 11 - - 0.2
02/10:30pm 13.4 9.2 8.3 71 2.5 WNW 20 28 11 15 - - 0.2
02/10:00pm 13.3 9.7 8.2 71 2.5 WNW 17 20 9 11 - - 0.2
02/09:30pm 13.4 9.3 8.0 70 2.7 W 19 24 10 13 - - 0.2
02/09:00pm 13.1 9.2 8.6 74 2.3 W 19 24 10 13 - - 0.2
02/08:30pm 12.9 9.8 8.8 76 2.1 W 15 22 8 12 - - 0.2
02/08:00pm 12.9 9.6 9.5 80 1.7 W 17 22 9 12 - - 0.2
02/07:30pm 12.8 8.7 10.2 84 1.3 WSW 22 28 12 15 - - 0.2
02/07:00pm 13.0 10.4 10.7 86 1.2 WSW 15 20 8 11 - - 0.2
02/06:30pm 13.1 10.2 11.0 87 1.1 WSW 17 20 9 11 - - 0.2
02/06:00pm 13.3 10.5 11.4 88 1.0 SW 17 20 9 11 - - 0.2
02/05:30pm 13.5 11.2 11.6 88 1.0 SW 15 19 8 10 - - 0.2
02/05:00pm 13.7 12.5 11.6 87 1.1 WSW 9 15 5 8 - - 0.2

Other formats

Comma delimited format used in spreadsheet applications
http://www.bom.gov.au/fwo/IDT60801/IDT60801.94974.axf

JavaScript Object Notation format (JSON) in row-major order
http://www.bom.gov.au/fwo/IDT60801/IDT60801.94974.json

Data quality

Most of these data are generated automatically and are frequently updated. Quality checks on data are not normally performed. It is possible for incorrect values to appear. Refer to information at About Latest Weather Observations and please check the disclaimer before using these data.